sensor_id;sensor_type;location;lat;lon;timestamp;pressure;altitude;pressure_sealevel;temperature;humidity
80759;BME280;70150;45.582;10.178;2023-07-29T00:00:47;99645.75;;;23.87;63.30
80759;BME280;70150;45.582;10.178;2023-07-29T00:03:12;99633.50;;;23.79;63.25
80759;BME280;70150;45.582;10.178;2023-07-29T00:05:38;99643.19;;;23.71;62.75
80759;BME280;70150;45.582;10.178;2023-07-29T00:08:04;99645.69;;;23.56;62.30
80759;BME280;70150;45.582;10.178;2023-07-29T00:10:35;99643.44;;;23.64;62.11
80759;BME280;70150;45.582;10.178;2023-07-29T00:13:01;99642.06;;;23.59;62.33
80759;BME280;70150;45.582;10.178;2023-07-29T00:15:26;99644.59;;;23.54;62.35
80759;BME280;70150;45.582;10.178;2023-07-29T00:17:52;99641.47;;;23.43;62.75
80759;BME280;70150;45.582;10.178;2023-07-29T00:20:17;99636.00;;;23.43;62.34
80759;BME280;70150;45.582;10.178;2023-07-29T00:22:43;99632.75;;;23.23;63.13
80759;BME280;70150;45.582;10.178;2023-07-29T00:25:11;99632.22;;;23.28;62.80
80759;BME280;70150;45.582;10.178;2023-07-29T00:27:37;99644.47;;;23.23;62.97
80759;BME280;70150;45.582;10.178;2023-07-29T00:30:03;99639.47;;;23.09;63.24
80759;BME280;70150;45.582;10.178;2023-07-29T00:32:29;99642.56;;;22.98;63.81
80759;BME280;70150;45.582;10.178;2023-07-29T00:34:56;99641.44;;;23.08;63.59
80759;BME280;70150;45.582;10.178;2023-07-29T00:37:21;99644.97;;;22.96;63.95
80759;BME280;70150;45.582;10.178;2023-07-29T00:39:47;99640.25;;;22.97;63.90
80759;BME280;70150;45.582;10.178;2023-07-29T00:42:12;99646.63;;;22.94;63.94
80759;BME280;70150;45.582;10.178;2023-07-29T00:44:38;99644.06;;;22.99;63.96
80759;BME280;70150;45.582;10.178;2023-07-29T00:47:05;99643.09;;;22.93;64.21
80759;BME280;70150;45.582;10.178;2023-07-29T00:49:31;99649.78;;;22.92;64.25
80759;BME280;70150;45.582;10.178;2023-07-29T00:51:57;99656.25;;;22.98;63.81
80759;BME280;70150;45.582;10.178;2023-07-29T00:54:23;99648.81;;;22.86;64.16
80759;BME280;70150;45.582;10.178;2023-07-29T00:56:49;99658.53;;;22.87;64.45
80759;BME280;70150;45.582;10.178;2023-07-29T00:59:15;99660.31;;;22.81;64.18
80759;BME280;70150;45.582;10.178;2023-07-29T01:01:40;99662.41;;;22.90;64.08
80759;BME280;70150;45.582;10.178;2023-07-29T01:04:06;99657.25;;;22.79;64.13
80759;BME280;70150;45.582;10.178;2023-07-29T01:09:14;99657.22;;;22.92;63.80
80759;BME280;70150;45.582;10.178;2023-07-29T01:16:47;99660.88;;;22.76;64.52
80759;BME280;70150;45.582;10.178;2023-07-29T01:19:34;99653.84;;;22.75;64.53
80759;BME280;70150;45.582;10.178;2023-07-29T01:22:04;99660.66;;;22.71;64.99
80759;BME280;70150;45.582;10.178;2023-07-29T01:24:30;99652.22;;;22.78;64.21
80759;BME280;70150;45.582;10.178;2023-07-29T01:26:55;99647.41;;;22.69;64.40
80759;BME280;70150;45.582;10.178;2023-07-29T01:29:21;99650.38;;;22.75;64.24
80759;BME280;70150;45.582;10.178;2023-07-29T01:31:51;99637.34;;;22.66;64.44
80759;BME280;70150;45.582;10.178;2023-07-29T01:34:26;99639.66;;;22.55;64.90
80759;BME280;70150;45.582;10.178;2023-07-29T01:36:54;99630.25;;;22.56;64.81
80759;BME280;70150;45.582;10.178;2023-07-29T01:39:23;99628.06;;;22.51;65.06
80759;BME280;70150;45.582;10.178;2023-07-29T01:41:50;99620.50;;;22.55;64.62
80759;BME280;70150;45.582;10.178;2023-07-29T01:44:19;99625.97;;;22.55;64.54
80759;BME280;70150;45.582;10.178;2023-07-29T01:46:45;99630.88;;;22.48;64.75
80759;BME280;70150;45.582;10.178;2023-07-29T01:49:11;99634.81;;;22.47;64.95
80759;BME280;70150;45.582;10.178;2023-07-29T01:51:37;99625.84;;;22.46;65.10
80759;BME280;70150;45.582;10.178;2023-07-29T01:54:02;99628.16;;;22.35;64.98
80759;BME280;70150;45.582;10.178;2023-07-29T01:56:28;99627.91;;;22.30;65.04
80759;BME280;70150;45.582;10.178;2023-07-29T01:58:54;99627.28;;;22.38;64.85
80759;BME280;70150;45.582;10.178;2023-07-29T02:01:19;99631.88;;;22.41;64.74
80759;BME280;70150;45.582;10.178;2023-07-29T02:03:45;99624.97;;;22.49;64.49
80759;BME280;70150;45.582;10.178;2023-07-29T02:06:11;99633.63;;;22.35;64.81
80759;BME280;70150;45.582;10.178;2023-07-29T02:08:36;99628.91;;;22.36;64.95
80759;BME280;70150;45.582;10.178;2023-07-29T02:11:02;99631.75;;;22.32;64.91
80759;BME280;70150;45.582;10.178;2023-07-29T02:13:27;99640.72;;;22.33;65.49
80759;BME280;70150;45.582;10.178;2023-07-29T02:15:53;99645.75;;;22.34;65.15
80759;BME280;70150;45.582;10.178;2023-07-29T02:18:18;99645.09;;;22.43;64.73
80759;BME280;70150;45.582;10.178;2023-07-29T02:20:44;99651.00;;;22.41;65.30
80759;BME280;70150;45.582;10.178;2023-07-29T02:23:15;99651.66;;;22.20;65.29
80759;BME280;70150;45.582;10.178;2023-07-29T02:25:42;99654.47;;;22.17;65.30
80759;BME280;70150;45.582;10.178;2023-07-29T02:28:08;99659.03;;;22.07;65.30
80759;BME280;70150;45.582;10.178;2023-07-29T02:30:33;99657.53;;;22.06;65.59
80759;BME280;70150;45.582;10.178;2023-07-29T02:32:59;99661.78;;;22.07;65.18
80759;BME280;70150;45.582;10.178;2023-07-29T02:35:27;99663.97;;;22.12;65.22
80759;BME280;70150;45.582;10.178;2023-07-29T02:37:52;99658.63;;;22.21;64.85
80759;BME280;70150;45.582;10.178;2023-07-29T02:40:20;99663.34;;;22.33;64.95
80759;BME280;70150;45.582;10.178;2023-07-29T02:42:46;99665.19;;;22.24;64.59
80759;BME280;70150;45.582;10.178;2023-07-29T02:45:12;99663.13;;;22.15;64.93
80759;BME280;70150;45.582;10.178;2023-07-29T02:47:38;99672.66;;;22.23;64.67
80759;BME280;70150;45.582;10.178;2023-07-29T02:50:04;99659.16;;;22.16;64.81
80759;BME280;70150;45.582;10.178;2023-07-29T02:52:30;99663.56;;;22.26;64.59
80759;BME280;70150;45.582;10.178;2023-07-29T02:54:55;99662.38;;;22.27;64.49
80759;BME280;70150;45.582;10.178;2023-07-29T02:57:21;99666.31;;;22.26;64.33
80759;BME280;70150;45.582;10.178;2023-07-29T02:59:46;99666.19;;;22.42;63.89
80759;BME280;70150;45.582;10.178;2023-07-29T03:02:12;99658.00;;;22.42;63.68
80759;BME280;70150;45.582;10.178;2023-07-29T03:04:37;99652.31;;;22.49;63.69
80759;BME280;70150;45.582;10.178;2023-07-29T03:07:03;99658.47;;;22.53;63.67
80759;BME280;70150;45.582;10.178;2023-07-29T03:09:29;99665.78;;;22.69;63.20
80759;BME280;70150;45.582;10.178;2023-07-29T03:11:54;99667.00;;;22.68;63.20
80759;BME280;70150;45.582;10.178;2023-07-29T03:14:22;99663.81;;;22.69;63.18
80759;BME280;70150;45.582;10.178;2023-07-29T03:16:50;99669.94;;;22.73;63.04
80759;BME280;70150;45.582;10.178;2023-07-29T03:19:15;99671.47;;;22.74;63.00
80759;BME280;70150;45.582;10.178;2023-07-29T03:21:41;99670.94;;;22.79;62.59
80759;BME280;70150;45.582;10.178;2023-07-29T03:24:07;99681.66;;;22.86;62.55
80759;BME280;70150;45.582;10.178;2023-07-29T03:26:32;99677.94;;;22.80;62.47
80759;BME280;70150;45.582;10.178;2023-07-29T03:28:58;99683.06;;;22.78;62.34
80759;BME280;70150;45.582;10.178;2023-07-29T03:31:26;99681.09;;;22.66;63.02
80759;BME280;70150;45.582;10.178;2023-07-29T03:33:51;99676.19;;;22.61;63.24
80759;BME280;70150;45.582;10.178;2023-07-29T03:36:17;99659.66;;;22.52;63.61
80759;BME280;70150;45.582;10.178;2023-07-29T03:38:44;99674.63;;;22.48;63.69
80759;BME280;70150;45.582;10.178;2023-07-29T03:41:12;99678.69;;;22.56;63.56
80759;BME280;70150;45.582;10.178;2023-07-29T03:43:40;99689.72;;;22.40;63.95
80759;BME280;70150;45.582;10.178;2023-07-29T03:46:06;99676.25;;;22.45;63.90
80759;BME280;70150;45.582;10.178;2023-07-29T03:48:31;99682.16;;;22.44;63.85
80759;BME280;70150;45.582;10.178;2023-07-29T03:50:57;99686.53;;;22.29;64.12
80759;BME280;70150;45.582;10.178;2023-07-29T03:53:22;99681.81;;;22.17;64.71
80759;BME280;70150;45.582;10.178;2023-07-29T03:55:48;99697.22;;;22.11;64.96
80759;BME280;70150;45.582;10.178;2023-07-29T03:58:15;99690.88;;;22.14;64.84
80759;BME280;70150;45.582;10.178;2023-07-29T04:00:40;99680.91;;;22.07;64.96
80759;BME280;70150;45.582;10.178;2023-07-29T04:03:08;99692.84;;;22.13;64.51
80759;BME280;70150;45.582;10.178;2023-07-29T04:05:34;99695.88;;;22.03;65.11
80759;BME280;70150;45.582;10.178;2023-07-29T04:08:00;99697.41;;;22.04;65.38
80759;BME280;70150;45.582;10.178;2023-07-29T04:10:25;99699.47;;;22.00;65.49
80759;BME280;70150;45.582;10.178;2023-07-29T04:12:53;99693.19;;;22.15;64.99
80759;BME280;70150;45.582;10.178;2023-07-29T04:15:21;99698.56;;;22.19;64.94
80759;BME280;70150;45.582;10.178;2023-07-29T04:17:46;99698.13;;;22.20;64.79
80759;BME280;70150;45.582;10.178;2023-07-29T04:20:12;99702.72;;;22.23;64.71
80759;BME280;70150;45.582;10.178;2023-07-29T04:22:38;99690.78;;;22.17;64.98
80759;BME280;70150;45.582;10.178;2023-07-29T04:25:04;99689.47;;;22.34;64.63
80759;BME280;70150;45.582;10.178;2023-07-29T04:27:30;99694.63;;;22.32;64.49
80759;BME280;70150;45.582;10.178;2023-07-29T04:29:55;99697.38;;;22.32;64.44
80759;BME280;70150;45.582;10.178;2023-07-29T04:32:23;99710.13;;;22.23;64.77
80759;BME280;70150;45.582;10.178;2023-07-29T04:34:51;99702.16;;;22.28;65.04
80759;BME280;70150;45.582;10.178;2023-07-29T04:37:16;99702.94;;;22.29;64.75
80759;BME280;70150;45.582;10.178;2023-07-29T04:39:42;99699.09;;;22.39;64.05
80759;BME280;70150;45.582;10.178;2023-07-29T04:42:08;99701.41;;;22.40;63.55
80759;BME280;70150;45.582;10.178;2023-07-29T04:44:36;99705.88;;;22.22;63.84
80759;BME280;70150;45.582;10.178;2023-07-29T04:47:01;99701.13;;;22.51;63.49
80759;BME280;70150;45.582;10.178;2023-07-29T04:49:27;99707.00;;;22.49;63.64
80759;BME280;70150;45.582;10.178;2023-07-29T04:51:55;99713.91;;;22.54;63.57
80759;BME280;70150;45.582;10.178;2023-07-29T04:54:20;99717.53;;;22.51;63.63
80759;BME280;70150;45.582;10.178;2023-07-29T04:56:46;99710.44;;;22.53;63.45
80759;BME280;70150;45.582;10.178;2023-07-29T04:59:12;99706.06;;;22.68;63.06
80759;BME280;70150;45.582;10.178;2023-07-29T05:01:38;99708.38;;;22.82;62.67
80759;BME280;70150;45.582;10.178;2023-07-29T05:04:04;99707.16;;;22.83;62.47
80759;BME280;70150;45.582;10.178;2023-07-29T05:06:29;99714.16;;;22.84;62.41
80759;BME280;70150;45.582;10.178;2023-07-29T05:08:57;99721.16;;;22.85;62.64
80759;BME280;70150;45.582;10.178;2023-07-29T05:11:23;99726.88;;;23.50;60.76
80759;BME280;70150;45.582;10.178;2023-07-29T05:13:50;99717.06;;;25.09;55.92
80759;BME280;70150;45.582;10.178;2023-07-29T05:16:18;99715.31;;;25.69;54.03
80759;BME280;70150;45.582;10.178;2023-07-29T05:18:44;99706.34;;;25.78;53.68
80759;BME280;70150;45.582;10.178;2023-07-29T05:21:09;99713.13;;;26.36;51.37
80759;BME280;70150;45.582;10.178;2023-07-29T05:23:36;99715.91;;;27.11;49.59
80759;BME280;70150;45.582;10.178;2023-07-29T05:26:02;99707.19;;;27.59;48.69
80759;BME280;70150;45.582;10.178;2023-07-29T05:28:27;99708.34;;;28.20;47.07
80759;BME280;70150;45.582;10.178;2023-07-29T05:30:55;99720.91;;;26.89;50.13
80759;BME280;70150;45.582;10.178;2023-07-29T05:33:21;99721.19;;;26.40;51.50
80759;BME280;70150;45.582;10.178;2023-07-29T05:35:46;99719.31;;;25.68;53.72
80759;BME280;70150;45.582;10.178;2023-07-29T05:38:12;99722.25;;;25.16;55.17
80759;BME280;70150;45.582;10.178;2023-07-29T05:40:38;99723.84;;;24.87;56.08
80759;BME280;70150;45.582;10.178;2023-07-29T05:43:03;99717.16;;;25.45;54.83
80759;BME280;70150;45.582;10.178;2023-07-29T05:45:29;99714.34;;;25.18;55.77
80759;BME280;70150;45.582;10.178;2023-07-29T05:47:56;99720.38;;;24.95;56.14
80759;BME280;70150;45.582;10.178;2023-07-29T05:50:24;99723.47;;;25.06;55.85
80759;BME280;70150;45.582;10.178;2023-07-29T05:52:49;99721.03;;;26.43;52.98
80759;BME280;70150;45.582;10.178;2023-07-29T05:55:15;99726.91;;;26.27;52.37
80759;BME280;70150;45.582;10.178;2023-07-29T05:57:41;99717.44;;;27.59;49.12
80759;BME280;70150;45.582;10.178;2023-07-29T06:00:06;99715.00;;;27.05;50.59
80759;BME280;70150;45.582;10.178;2023-07-29T06:02:34;99719.50;;;26.52;52.53
80759;BME280;70150;45.582;10.178;2023-07-29T06:05:00;99716.41;;;28.67;46.34
80759;BME280;70150;45.582;10.178;2023-07-29T06:07:28;99715.78;;;28.92;45.28
80759;BME280;70150;45.582;10.178;2023-07-29T06:09:56;99724.31;;;29.89;42.48
80759;BME280;70150;45.582;10.178;2023-07-29T06:12:21;99726.56;;;31.46;39.58
80759;BME280;70150;45.582;10.178;2023-07-29T06:14:47;99724.34;;;31.56;38.94
80759;BME280;70150;45.582;10.178;2023-07-29T06:17:12;99725.72;;;30.56;40.91
80759;BME280;70150;45.582;10.178;2023-07-29T06:19:38;99730.19;;;30.48;41.78
80759;BME280;70150;45.582;10.178;2023-07-29T06:22:04;99732.50;;;30.80;40.70
80759;BME280;70150;45.582;10.178;2023-07-29T06:24:31;99733.38;;;33.03;36.70
80759;BME280;70150;45.582;10.178;2023-07-29T06:26:57;99741.56;;;31.76;38.58
80759;BME280;70150;45.582;10.178;2023-07-29T06:29:22;99740.00;;;33.63;35.33
80759;BME280;70150;45.582;10.178;2023-07-29T06:31:48;99734.41;;;34.20;33.26
80759;BME280;70150;45.582;10.178;2023-07-29T06:34:13;99739.88;;;33.96;35.35
80759;BME280;70150;45.582;10.178;2023-07-29T06:36:39;99745.94;;;33.21;36.22
80759;BME280;70150;45.582;10.178;2023-07-29T06:39:05;99744.22;;;36.00;31.80
80759;BME280;70150;45.582;10.178;2023-07-29T06:41:30;99746.28;;;37.21;29.89
80759;BME280;70150;45.582;10.178;2023-07-29T06:43:56;99732.50;;;38.29;28.11
80759;BME280;70150;45.582;10.178;2023-07-29T06:46:21;99742.97;;;39.18;26.92
80759;BME280;70150;45.582;10.178;2023-07-29T06:48:47;99736.25;;;40.15;26.11
80759;BME280;70150;45.582;10.178;2023-07-29T06:51:12;99739.13;;;40.75;24.93
80759;BME280;70150;45.582;10.178;2023-07-29T06:53:38;99727.38;;;39.89;25.68
80759;BME280;70150;45.582;10.178;2023-07-29T06:56:04;99727.81;;;39.21;26.59
80759;BME280;70150;45.582;10.178;2023-07-29T06:58:30;99730.41;;;37.62;28.67
80759;BME280;70150;45.582;10.178;2023-07-29T07:00:55;99727.06;;;35.06;32.35
80759;BME280;70150;45.582;10.178;2023-07-29T07:03:21;99728.03;;;34.84;33.58
80759;BME280;70150;45.582;10.178;2023-07-29T07:05:46;99730.19;;;34.02;36.06
80759;BME280;70150;45.582;10.178;2023-07-29T07:08:12;99734.63;;;33.08;37.94
80759;BME280;70150;45.582;10.178;2023-07-29T07:10:39;99738.25;;;31.72;40.29
80759;BME280;70150;45.582;10.178;2023-07-29T07:13:05;99738.56;;;30.84;42.40
80759;BME280;70150;45.582;10.178;2023-07-29T07:15:31;99733.31;;;30.61;43.71
80759;BME280;70150;45.582;10.178;2023-07-29T07:17:57;99736.53;;;30.23;43.81
80759;BME280;70150;45.582;10.178;2023-07-29T07:20:22;99739.09;;;30.06;45.70
80759;BME280;70150;45.582;10.178;2023-07-29T07:22:48;99739.63;;;29.85;45.81
80759;BME280;70150;45.582;10.178;2023-07-29T07:25:13;99740.66;;;29.47;47.02
80759;BME280;70150;45.582;10.178;2023-07-29T07:27:39;99743.59;;;29.23;48.16
80759;BME280;70150;45.582;10.178;2023-07-29T07:30:07;99751.41;;;29.25;47.18
80759;BME280;70150;45.582;10.178;2023-07-29T07:32:35;99750.75;;;29.30;48.15
80759;BME280;70150;45.582;10.178;2023-07-29T07:35:01;99753.94;;;29.08;47.97
80759;BME280;70150;45.582;10.178;2023-07-29T07:37:27;99753.28;;;28.99;47.88
80759;BME280;70150;45.582;10.178;2023-07-29T07:39:52;99749.47;;;28.96;48.05
80759;BME280;70150;45.582;10.178;2023-07-29T07:42:18;99745.66;;;29.08;48.27
80759;BME280;70150;45.582;10.178;2023-07-29T07:44:46;99745.06;;;29.04;49.15
80759;BME280;70150;45.582;10.178;2023-07-29T07:47:12;99754.16;;;28.90;48.92
80759;BME280;70150;45.582;10.178;2023-07-29T07:49:37;99737.84;;;29.07;49.29
80759;BME280;70150;45.582;10.178;2023-07-29T07:52:03;99742.66;;;28.77;48.42
80759;BME280;70150;45.582;10.178;2023-07-29T07:54:28;99737.81;;;28.87;49.09
80759;BME280;70150;45.582;10.178;2023-07-29T07:56:54;99749.59;;;28.87;48.34
80759;BME280;70150;45.582;10.178;2023-07-29T07:59:22;99748.38;;;28.74;47.51
80759;BME280;70150;45.582;10.178;2023-07-29T08:01:50;99745.31;;;28.86;48.35
80759;BME280;70150;45.582;10.178;2023-07-29T08:04:17;99755.81;;;28.82;48.28
80759;BME280;70150;45.582;10.178;2023-07-29T08:06:43;99751.97;;;28.80;49.51
80759;BME280;70150;45.582;10.178;2023-07-29T08:09:08;99749.19;;;29.09;49.31
80759;BME280;70150;45.582;10.178;2023-07-29T08:11:34;99749.41;;;29.25;48.98
80759;BME280;70150;45.582;10.178;2023-07-29T08:13:59;99748.44;;;29.28;48.27
80759;BME280;70150;45.582;10.178;2023-07-29T08:16:25;99745.53;;;29.17;47.77
80759;BME280;70150;45.582;10.178;2023-07-29T08:18:50;99754.75;;;29.29;47.64
80759;BME280;70150;45.582;10.178;2023-07-29T08:21:16;99748.06;;;29.35;47.94
80759;BME280;70150;45.582;10.178;2023-07-29T08:23:41;99742.88;;;29.43;48.33
80759;BME280;70150;45.582;10.178;2023-07-29T08:26:09;99751.66;;;29.41;47.34
80759;BME280;70150;45.582;10.178;2023-07-29T08:28:37;99737.50;;;29.74;47.62
80759;BME280;70150;45.582;10.178;2023-07-29T08:31:03;99743.66;;;29.84;46.02
80759;BME280;70150;45.582;10.178;2023-07-29T08:33:30;99735.00;;;29.56;46.75
80759;BME280;70150;45.582;10.178;2023-07-29T08:35:58;99736.56;;;29.83;46.36
80759;BME280;70150;45.582;10.178;2023-07-29T08:38:24;99735.34;;;30.29;44.58
80759;BME280;70150;45.582;10.178;2023-07-29T08:40:53;99727.38;;;30.17;45.02
80759;BME280;70150;45.582;10.178;2023-07-29T08:43:28;99730.31;;;30.33;44.42
80759;BME280;70150;45.582;10.178;2023-07-29T08:45:55;99731.41;;;30.41;43.94
80759;BME280;70150;45.582;10.178;2023-07-29T08:50:55;99732.94;;;30.48;44.78
80759;BME280;70150;45.582;10.178;2023-07-29T08:53:21;99728.50;;;30.25;44.97
80759;BME280;70150;45.582;10.178;2023-07-29T08:55:47;99728.00;;;30.26;45.36
80759;BME280;70150;45.582;10.178;2023-07-29T08:58:16;99725.91;;;30.47;46.28
80759;BME280;70150;45.582;10.178;2023-07-29T09:00:45;99728.34;;;30.14;46.21
80759;BME280;70150;45.582;10.178;2023-07-29T09:03:11;99726.59;;;29.91;47.46
80759;BME280;70150;45.582;10.178;2023-07-29T09:05:37;99724.22;;;30.04;46.79
80759;BME280;70150;45.582;10.178;2023-07-29T09:08:04;99725.31;;;30.12;46.54
80759;BME280;70150;45.582;10.178;2023-07-29T09:10:29;99722.28;;;30.35;47.41
80759;BME280;70150;45.582;10.178;2023-07-29T09:12:55;99728.31;;;30.08;46.24
80759;BME280;70150;45.582;10.178;2023-07-29T09:17:52;99716.94;;;29.60;47.59
80759;BME280;70150;45.582;10.178;2023-07-29T09:22:54;99709.34;;;30.01;49.35
80759;BME280;70150;45.582;10.178;2023-07-29T09:25:24;99710.00;;;30.16;49.30
80759;BME280;70150;45.582;10.178;2023-07-29T09:27:49;99707.00;;;30.45;47.17
80759;BME280;70150;45.582;10.178;2023-07-29T09:30:16;99701.84;;;30.27;47.26
80759;BME280;70150;45.582;10.178;2023-07-29T09:32:42;99701.97;;;30.18;46.90
80759;BME280;70150;45.582;10.178;2023-07-29T09:35:12;99703.94;;;30.38;49.64
80759;BME280;70150;45.582;10.178;2023-07-29T09:37:38;99704.59;;;30.58;47.58
80759;BME280;70150;45.582;10.178;2023-07-29T09:40:06;99707.66;;;30.66;47.92
80759;BME280;70150;45.582;10.178;2023-07-29T09:42:32;99702.47;;;30.42;48.14
80759;BME280;70150;45.582;10.178;2023-07-29T09:44:57;99699.47;;;30.77;47.88
80759;BME280;70150;45.582;10.178;2023-07-29T09:47:25;99703.56;;;30.56;47.46
80759;BME280;70150;45.582;10.178;2023-07-29T09:49:52;99702.28;;;30.51;49.64
80759;BME280;70150;45.582;10.178;2023-07-29T09:52:18;99696.56;;;30.60;48.69
80759;BME280;70150;45.582;10.178;2023-07-29T09:54:44;99685.44;;;30.55;48.95
80759;BME280;70150;45.582;10.178;2023-07-29T09:57:13;99694.63;;;30.10;50.70
80759;BME280;70150;45.582;10.178;2023-07-29T09:59:39;99690.44;;;30.51;50.72
80759;BME280;70150;45.582;10.178;2023-07-29T10:02:10;99682.56;;;30.75;49.42
80759;BME280;70150;45.582;10.178;2023-07-29T10:04:42;99687.47;;;30.91;47.64
80759;BME280;70150;45.582;10.178;2023-07-29T10:07:10;99684.56;;;31.11;47.36
80759;BME280;70150;45.582;10.178;2023-07-29T10:09:37;99690.81;;;31.06;48.33
80759;BME280;70150;45.582;10.178;2023-07-29T10:12:06;99676.69;;;31.04;47.54
80759;BME280;70150;45.582;10.178;2023-07-29T10:14:32;99684.50;;;31.00;48.36
80759;BME280;70150;45.582;10.178;2023-07-29T10:16:58;99679.78;;;31.17;47.04
80759;BME280;70150;45.582;10.178;2023-07-29T10:19:25;99687.31;;;31.11;47.56
80759;BME280;70150;45.582;10.178;2023-07-29T10:21:51;99683.63;;;30.83;48.33
80759;BME280;70150;45.582;10.178;2023-07-29T10:24:19;99680.22;;;30.99;47.36
80759;BME280;70150;45.582;10.178;2023-07-29T10:26:49;99677.97;;;31.08;48.76
80759;BME280;70150;45.582;10.178;2023-07-29T10:29:19;99672.97;;;31.12;48.47
80759;BME280;70150;45.582;10.178;2023-07-29T10:31:47;99669.53;;;30.81;50.58
80759;BME280;70150;45.582;10.178;2023-07-29T10:34:13;99675.72;;;30.70;50.73
80759;BME280;70150;45.582;10.178;2023-07-29T10:36:40;99672.63;;;30.94;49.30
80759;BME280;70150;45.582;10.178;2023-07-29T10:39:07;99673.53;;;30.80;49.02
80759;BME280;70150;45.582;10.178;2023-07-29T10:44:05;99663.63;;;31.10;49.03
80759;BME280;70150;45.582;10.178;2023-07-29T10:46:34;99669.41;;;31.06;48.71
80759;BME280;70150;45.582;10.178;2023-07-29T10:49:01;99663.00;;;30.84;50.00
80759;BME280;70150;45.582;10.178;2023-07-29T10:51:34;99661.06;;;31.01;50.73
80759;BME280;70150;45.582;10.178;2023-07-29T10:54:03;99667.78;;;30.89;50.00
80759;BME280;70150;45.582;10.178;2023-07-29T10:56:33;99658.50;;;30.92;48.47
80759;BME280;70150;45.582;10.178;2023-07-29T11:01:53;99661.59;;;31.10;48.42
80759;BME280;70150;45.582;10.178;2023-07-29T11:14:41;99657.72;;;31.39;47.74
80759;BME280;70150;45.582;10.178;2023-07-29T11:17:07;99662.41;;;31.16;47.99
80759;BME280;70150;45.582;10.178;2023-07-29T11:19:32;99664.78;;;31.40;49.00
80759;BME280;70150;45.582;10.178;2023-07-29T11:22:00;99660.00;;;31.46;47.60
80759;BME280;70150;45.582;10.178;2023-07-29T11:24:25;99652.94;;;31.45;47.44
80759;BME280;70150;45.582;10.178;2023-07-29T11:26:51;99655.50;;;31.54;48.29
80759;BME280;70150;45.582;10.178;2023-07-29T11:29:17;99651.47;;;31.55;47.15
80759;BME280;70150;45.582;10.178;2023-07-29T11:31:44;99651.50;;;31.72;46.97
80759;BME280;70150;45.582;10.178;2023-07-29T11:34:11;99640.63;;;31.57;47.43
80759;BME280;70150;45.582;10.178;2023-07-29T11:36:45;99643.59;;;31.37;47.30
80759;BME280;70150;45.582;10.178;2023-07-29T11:39:11;99642.56;;;31.29;47.59
80759;BME280;70150;45.582;10.178;2023-07-29T11:41:37;99642.50;;;31.18;47.80
80759;BME280;70150;45.582;10.178;2023-07-29T11:44:02;99640.44;;;31.13;48.69
80759;BME280;70150;45.582;10.178;2023-07-29T11:46:30;99649.47;;;30.97;48.54
80759;BME280;70150;45.582;10.178;2023-07-29T11:48:56;99649.97;;;31.01;48.24
80759;BME280;70150;45.582;10.178;2023-07-29T11:51:21;99647.75;;;31.10;48.07
80759;BME280;70150;45.582;10.178;2023-07-29T11:53:47;99640.22;;;31.22;46.73
80759;BME280;70150;45.582;10.178;2023-07-29T11:56:14;99630.72;;;31.28;46.56
80759;BME280;70150;45.582;10.178;2023-07-29T11:58:40;99635.53;;;31.39;46.28
80759;BME280;70150;45.582;10.178;2023-07-29T12:01:05;99630.56;;;31.65;46.87
80759;BME280;70150;45.582;10.178;2023-07-29T12:03:31;99635.09;;;31.68;47.47
80759;BME280;70150;45.582;10.178;2023-07-29T12:05:57;99620.25;;;31.88;47.39
80759;BME280;70150;45.582;10.178;2023-07-29T12:08:23;99623.00;;;31.71;46.62
80759;BME280;70150;45.582;10.178;2023-07-29T12:10:48;99625.00;;;31.65;48.32
80759;BME280;70150;45.582;10.178;2023-07-29T12:13:14;99629.56;;;31.63;46.66
80759;BME280;70150;45.582;10.178;2023-07-29T12:15:40;99618.19;;;31.66;47.63
80759;BME280;70150;45.582;10.178;2023-07-29T12:18:05;99619.47;;;31.65;46.26
80759;BME280;70150;45.582;10.178;2023-07-29T12:20:31;99612.91;;;31.63;46.83
80759;BME280;70150;45.582;10.178;2023-07-29T12:22:59;99610.94;;;31.10;46.93
80759;BME280;70150;45.582;10.178;2023-07-29T12:25:28;99603.44;;;31.21;47.56
80759;BME280;70150;45.582;10.178;2023-07-29T12:27:54;99598.78;;;31.66;46.63
80759;BME280;70150;45.582;10.178;2023-07-29T12:30:21;99599.47;;;31.44;47.84
80759;BME280;70150;45.582;10.178;2023-07-29T12:32:47;99597.03;;;30.93;48.80
80759;BME280;70150;45.582;10.178;2023-07-29T12:35:14;99596.19;;;30.76;48.36
80759;BME280;70150;45.582;10.178;2023-07-29T12:37:40;99588.69;;;30.82;48.88
80759;BME280;70150;45.582;10.178;2023-07-29T12:42:40;99591.66;;;31.32;46.00
80759;BME280;70150;45.582;10.178;2023-07-29T12:45:06;99589.38;;;31.36;45.78
80759;BME280;70150;45.582;10.178;2023-07-29T12:47:34;99585.13;;;31.35;47.30
80759;BME280;70150;45.582;10.178;2023-07-29T12:50:00;99592.34;;;31.21;48.03
80759;BME280;70150;45.582;10.178;2023-07-29T12:52:25;99587.50;;;31.00;48.01
80759;BME280;70150;45.582;10.178;2023-07-29T12:54:51;99585.03;;;30.65;48.91
80759;BME280;70150;45.582;10.178;2023-07-29T12:57:17;99586.22;;;30.95;48.76
80759;BME280;70150;45.582;10.178;2023-07-29T12:59:42;99576.72;;;31.18;49.34
80759;BME280;70150;45.582;10.178;2023-07-29T13:02:08;99573.63;;;31.05;49.12
80759;BME280;70150;45.582;10.178;2023-07-29T13:04:36;99571.38;;;31.04;48.29
80759;BME280;70150;45.582;10.178;2023-07-29T13:07:02;99570.13;;;31.05;49.18
80759;BME280;70150;45.582;10.178;2023-07-29T13:09:27;99565.09;;;31.14;49.47
80759;BME280;70150;45.582;10.178;2023-07-29T13:11:53;99561.34;;;31.23;49.25
80759;BME280;70150;45.582;10.178;2023-07-29T13:14:18;99563.44;;;31.39;47.83
80759;BME280;70150;45.582;10.178;2023-07-29T13:16:44;99560.44;;;31.59;46.15
80759;BME280;70150;45.582;10.178;2023-07-29T13:19:10;99552.88;;;31.71;45.63